sensor_id;sensor_type;location;lat;lon;timestamp;P1;durP1;ratioP1;P2;durP2;ratioP2
64885;SDS011;51514;52.206;5.114;2022-07-25T00:02:24;6.60;;;5.63;;
64885;SDS011;51514;52.206;5.114;2022-07-25T00:04:49;7.20;;;6.10;;
64885;SDS011;51514;52.206;5.114;2022-07-25T00:07:15;7.47;;;5.70;;
64885;SDS011;51514;52.206;5.114;2022-07-25T00:09:40;8.75;;;6.68;;
64885;SDS011;51514;52.206;5.114;2022-07-25T00:12:06;9.63;;;5.90;;
64885;SDS011;51514;52.206;5.114;2022-07-25T00:14:31;8.73;;;6.43;;
64885;SDS011;51514;52.206;5.114;2022-07-25T00:16:57;8.15;;;6.20;;
64885;SDS011;51514;52.206;5.114;2022-07-25T00:19:22;9.77;;;6.22;;
64885;SDS011;51514;52.206;5.114;2022-07-25T00:21:48;11.35;;;7.20;;
64885;SDS011;51514;52.206;5.114;2022-07-25T00:24:13;10.85;;;6.72;;
64885;SDS011;51514;52.206;5.114;2022-07-25T00:26:38;12.55;;;7.15;;
64885;SDS011;51514;52.206;5.114;2022-07-25T00:29:04;11.40;;;7.72;;
64885;SDS011;51514;52.206;5.114;2022-07-25T00:31:29;9.05;;;7.30;;
64885;SDS011;51514;52.206;5.114;2022-07-25T00:33:54;8.10;;;6.30;;
64885;SDS011;51514;52.206;5.114;2022-07-25T00:36:20;10.07;;;7.03;;
64885;SDS011;51514;52.206;5.114;2022-07-25T00:38:45;8.70;;;6.40;;
64885;SDS011;51514;52.206;5.114;2022-07-25T00:41:10;10.95;;;6.03;;
64885;SDS011;51514;52.206;5.114;2022-07-25T00:43:36;9.90;;;6.72;;
64885;SDS011;51514;52.206;5.114;2022-07-25T00:46:01;7.30;;;6.15;;
64885;SDS011;51514;52.206;5.114;2022-07-25T00:48:27;8.70;;;6.03;;
64885;SDS011;51514;52.206;5.114;2022-07-25T00:50:52;8.23;;;6.15;;
64885;SDS011;51514;52.206;5.114;2022-07-25T00:53:19;10.82;;;5.88;;
64885;SDS011;51514;52.206;5.114;2022-07-25T00:55:45;8.18;;;5.40;;
64885;SDS011;51514;52.206;5.114;2022-07-25T00:58:11;6.20;;;5.00;;
64885;SDS011;51514;52.206;5.114;2022-07-25T01:00:36;8.25;;;5.85;;
64885;SDS011;51514;52.206;5.114;2022-07-25T01:03:02;8.55;;;6.30;;
64885;SDS011;51514;52.206;5.114;2022-07-25T01:05:27;8.05;;;5.50;;
64885;SDS011;51514;52.206;5.114;2022-07-25T01:07:53;8.13;;;5.75;;
64885;SDS011;51514;52.206;5.114;2022-07-25T01:10:18;9.02;;;5.70;;
64885;SDS011;51514;52.206;5.114;2022-07-25T01:12:48;10.10;;;5.80;;
64885;SDS011;51514;52.206;5.114;2022-07-25T01:15:15;17.08;;;7.68;;
64885;SDS011;51514;52.206;5.114;2022-07-25T01:17:42;13.65;;;7.85;;
64885;SDS011;51514;52.206;5.114;2022-07-25T01:20:14;12.57;;;7.90;;
64885;SDS011;51514;52.206;5.114;2022-07-25T01:22:40;10.80;;;7.85;;
64885;SDS011;51514;52.206;5.114;2022-07-25T01:25:05;9.30;;;6.93;;
64885;SDS011;51514;52.206;5.114;2022-07-25T01:27:31;9.65;;;7.35;;
64885;SDS011;51514;52.206;5.114;2022-07-25T01:29:56;11.18;;;6.85;;
64885;SDS011;51514;52.206;5.114;2022-07-25T01:32:21;9.60;;;7.00;;
64885;SDS011;51514;52.206;5.114;2022-07-25T01:34:46;8.75;;;6.45;;
64885;SDS011;51514;52.206;5.114;2022-07-25T01:37:12;7.15;;;6.20;;
64885;SDS011;51514;52.206;5.114;2022-07-25T01:39:37;9.35;;;6.43;;
64885;SDS011;51514;52.206;5.114;2022-07-25T01:42:02;8.35;;;6.65;;
64885;SDS011;51514;52.206;5.114;2022-07-25T01:44:28;8.57;;;7.13;;
64885;SDS011;51514;52.206;5.114;2022-07-25T01:46:53;9.45;;;6.53;;
64885;SDS011;51514;52.206;5.114;2022-07-25T01:49:19;7.35;;;6.50;;
64885;SDS011;51514;52.206;5.114;2022-07-25T01:51:44;9.10;;;6.82;;
64885;SDS011;51514;52.206;5.114;2022-07-25T01:54:09;10.10;;;6.47;;
64885;SDS011;51514;52.206;5.114;2022-07-25T01:56:34;11.57;;;6.53;;
64885;SDS011;51514;52.206;5.114;2022-07-25T01:59:00;7.90;;;6.70;;
64885;SDS011;51514;52.206;5.114;2022-07-25T02:01:25;9.70;;;7.10;;
64885;SDS011;51514;52.206;5.114;2022-07-25T02:03:50;10.00;;;6.90;;
64885;SDS011;51514;52.206;5.114;2022-07-25T02:06:16;10.23;;;7.28;;
64885;SDS011;51514;52.206;5.114;2022-07-25T02:08:42;9.50;;;7.45;;
64885;SDS011;51514;52.206;5.114;2022-07-25T02:11:07;11.18;;;7.22;;
64885;SDS011;51514;52.206;5.114;2022-07-25T02:13:32;9.40;;;7.60;;
64885;SDS011;51514;52.206;5.114;2022-07-25T02:15:57;8.00;;;7.00;;
64885;SDS011;51514;52.206;5.114;2022-07-25T02:18:23;8.38;;;6.65;;
64885;SDS011;51514;52.206;5.114;2022-07-25T02:20:49;8.85;;;7.07;;
64885;SDS011;51514;52.206;5.114;2022-07-25T02:23:14;9.52;;;7.38;;
64885;SDS011;51514;52.206;5.114;2022-07-25T02:25:39;9.45;;;7.60;;
64885;SDS011;51514;52.206;5.114;2022-07-25T02:28:05;11.68;;;8.00;;
64885;SDS011;51514;52.206;5.114;2022-07-25T02:30:30;9.15;;;7.68;;
64885;SDS011;51514;52.206;5.114;2022-07-25T02:32:55;10.50;;;8.00;;
64885;SDS011;51514;52.206;5.114;2022-07-25T02:35:21;10.90;;;8.23;;
64885;SDS011;51514;52.206;5.114;2022-07-25T02:37:46;10.40;;;7.93;;
64885;SDS011;51514;52.206;5.114;2022-07-25T02:40:12;12.90;;;8.77;;
64885;SDS011;51514;52.206;5.114;2022-07-25T02:42:37;9.07;;;7.30;;
64885;SDS011;51514;52.206;5.114;2022-07-25T02:45:03;9.63;;;8.35;;
64885;SDS011;51514;52.206;5.114;2022-07-25T02:47:28;10.55;;;8.38;;
64885;SDS011;51514;52.206;5.114;2022-07-25T02:49:54;12.55;;;8.57;;
64885;SDS011;51514;52.206;5.114;2022-07-25T02:52:19;11.60;;;8.25;;
64885;SDS011;51514;52.206;5.114;2022-07-25T02:54:44;11.23;;;8.55;;
64885;SDS011;51514;52.206;5.114;2022-07-25T02:57:10;11.90;;;9.27;;
64885;SDS011;51514;52.206;5.114;2022-07-25T02:59:35;11.27;;;8.13;;
64885;SDS011;51514;52.206;5.114;2022-07-25T03:02:00;10.27;;;7.82;;
64885;SDS011;51514;52.206;5.114;2022-07-25T03:04:26;12.52;;;8.70;;
64885;SDS011;51514;52.206;5.114;2022-07-25T03:06:51;10.07;;;8.73;;
64885;SDS011;51514;52.206;5.114;2022-07-25T03:09:16;13.48;;;9.43;;
64885;SDS011;51514;52.206;5.114;2022-07-25T03:11:41;11.98;;;8.90;;
64885;SDS011;51514;52.206;5.114;2022-07-25T03:14:07;11.88;;;9.00;;
64885;SDS011;51514;52.206;5.114;2022-07-25T03:16:32;10.68;;;8.52;;
64885;SDS011;51514;52.206;5.114;2022-07-25T03:18:58;10.75;;;8.52;;
64885;SDS011;51514;52.206;5.114;2022-07-25T03:21:23;10.52;;;8.82;;
64885;SDS011;51514;52.206;5.114;2022-07-25T03:23:48;14.32;;;9.02;;
64885;SDS011;51514;52.206;5.114;2022-07-25T03:26:14;11.68;;;8.77;;
64885;SDS011;51514;52.206;5.114;2022-07-25T03:28:39;13.00;;;9.43;;
64885;SDS011;51514;52.206;5.114;2022-07-25T03:31:05;10.38;;;8.40;;
64885;SDS011;51514;52.206;5.114;2022-07-25T03:33:30;10.88;;;9.20;;
64885;SDS011;51514;52.206;5.114;2022-07-25T03:35:55;12.18;;;9.30;;
64885;SDS011;51514;52.206;5.114;2022-07-25T03:38:21;11.63;;;8.65;;
64885;SDS011;51514;52.206;5.114;2022-07-25T03:40:46;13.30;;;9.52;;
64885;SDS011;51514;52.206;5.114;2022-07-25T03:43:11;9.60;;;8.60;;
64885;SDS011;51514;52.206;5.114;2022-07-25T03:45:37;13.55;;;9.32;;
64885;SDS011;51514;52.206;5.114;2022-07-25T03:48:02;11.20;;;8.70;;
64885;SDS011;51514;52.206;5.114;2022-07-25T03:50:27;13.23;;;9.90;;
64885;SDS011;51514;52.206;5.114;2022-07-25T03:52:53;10.32;;;8.93;;
64885;SDS011;51514;52.206;5.114;2022-07-25T03:55:18;12.38;;;9.45;;
64885;SDS011;51514;52.206;5.114;2022-07-25T03:57:43;14.00;;;9.65;;
64885;SDS011;51514;52.206;5.114;2022-07-25T04:00:09;12.77;;;9.15;;
64885;SDS011;51514;52.206;5.114;2022-07-25T04:02:36;16.40;;;9.55;;
64885;SDS011;51514;52.206;5.114;2022-07-25T04:05:02;12.55;;;9.32;;
64885;SDS011;51514;52.206;5.114;2022-07-25T04:07:29;12.60;;;9.93;;
64885;SDS011;51514;52.206;5.114;2022-07-25T04:09:54;9.75;;;8.75;;
64885;SDS011;51514;52.206;5.114;2022-07-25T04:12:20;12.07;;;9.32;;
64885;SDS011;51514;52.206;5.114;2022-07-25T04:14:45;9.70;;;8.25;;
64885;SDS011;51514;52.206;5.114;2022-07-25T04:17:10;11.10;;;8.73;;
64885;SDS011;51514;52.206;5.114;2022-07-25T04:19:36;11.25;;;9.02;;
64885;SDS011;51514;52.206;5.114;2022-07-25T04:22:01;10.82;;;8.50;;
64885;SDS011;51514;52.206;5.114;2022-07-25T04:24:26;12.65;;;9.07;;
64885;SDS011;51514;52.206;5.114;2022-07-25T04:26:52;11.13;;;9.30;;
64885;SDS011;51514;52.206;5.114;2022-07-25T04:29:17;11.05;;;9.25;;
64885;SDS011;51514;52.206;5.114;2022-07-25T04:31:42;11.40;;;9.02;;
64885;SDS011;51514;52.206;5.114;2022-07-25T04:34:09;11.30;;;9.60;;
64885;SDS011;51514;52.206;5.114;2022-07-25T04:36:34;10.90;;;8.82;;
64885;SDS011;51514;52.206;5.114;2022-07-25T04:39:00;10.68;;;8.63;;
64885;SDS011;51514;52.206;5.114;2022-07-25T04:41:25;11.63;;;9.02;;
64885;SDS011;51514;52.206;5.114;2022-07-25T04:43:51;11.30;;;9.90;;
64885;SDS011;51514;52.206;5.114;2022-07-25T04:46:17;12.25;;;9.45;;
64885;SDS011;51514;52.206;5.114;2022-07-25T04:48:43;16.80;;;10.60;;
64885;SDS011;51514;52.206;5.114;2022-07-25T04:51:08;11.95;;;9.70;;
64885;SDS011;51514;52.206;5.114;2022-07-25T04:53:35;13.65;;;10.15;;
64885;SDS011;51514;52.206;5.114;2022-07-25T04:56:00;12.43;;;10.70;;
64885;SDS011;51514;52.206;5.114;2022-07-25T04:58:25;13.32;;;10.70;;
64885;SDS011;51514;52.206;5.114;2022-07-25T05:00:51;15.73;;;12.18;;
64885;SDS011;51514;52.206;5.114;2022-07-25T05:03:16;16.38;;;11.18;;
64885;SDS011;51514;52.206;5.114;2022-07-25T05:05:41;15.80;;;11.43;;
64885;SDS011;51514;52.206;5.114;2022-07-25T05:08:07;14.20;;;10.57;;
64885;SDS011;51514;52.206;5.114;2022-07-25T05:10:33;13.48;;;11.63;;
64885;SDS011;51514;52.206;5.114;2022-07-25T05:12:58;18.20;;;11.45;;
64885;SDS011;51514;52.206;5.114;2022-07-25T05:15:23;16.52;;;12.60;;
64885;SDS011;51514;52.206;5.114;2022-07-25T05:17:49;16.02;;;11.88;;
64885;SDS011;51514;52.206;5.114;2022-07-25T05:20:14;14.68;;;11.90;;
64885;SDS011;51514;52.206;5.114;2022-07-25T05:22:40;18.38;;;14.02;;
64885;SDS011;51514;52.206;5.114;2022-07-25T05:25:06;17.05;;;13.98;;
64885;SDS011;51514;52.206;5.114;2022-07-25T05:27:34;17.55;;;14.02;;
64885;SDS011;51514;52.206;5.114;2022-07-25T05:30:00;17.23;;;14.98;;
64885;SDS011;51514;52.206;5.114;2022-07-25T05:32:25;16.58;;;14.43;;
64885;SDS011;51514;52.206;5.114;2022-07-25T05:34:50;19.10;;;14.30;;
64885;SDS011;51514;52.206;5.114;2022-07-25T05:37:16;18.52;;;15.35;;
64885;SDS011;51514;52.206;5.114;2022-07-25T05:39:41;16.83;;;14.38;;
64885;SDS011;51514;52.206;5.114;2022-07-25T05:42:07;19.75;;;14.35;;
64885;SDS011;51514;52.206;5.114;2022-07-25T05:44:32;17.90;;;14.30;;
64885;SDS011;51514;52.206;5.114;2022-07-25T05:46:57;15.40;;;13.43;;
64885;SDS011;51514;52.206;5.114;2022-07-25T05:49:23;20.65;;;13.23;;
64885;SDS011;51514;52.206;5.114;2022-07-25T05:51:48;14.52;;;12.13;;
64885;SDS011;51514;52.206;5.114;2022-07-25T05:54:14;14.38;;;11.77;;
64885;SDS011;51514;52.206;5.114;2022-07-25T05:56:39;13.32;;;10.93;;
64885;SDS011;51514;52.206;5.114;2022-07-25T05:59:04;16.90;;;10.63;;
64885;SDS011;51514;52.206;5.114;2022-07-25T06:01:30;12.75;;;9.52;;
64885;SDS011;51514;52.206;5.114;2022-07-25T06:03:55;12.43;;;9.35;;
64885;SDS011;51514;52.206;5.114;2022-07-25T06:06:20;12.13;;;8.48;;
64885;SDS011;51514;52.206;5.114;2022-07-25T06:08:46;12.82;;;8.00;;
64885;SDS011;51514;52.206;5.114;2022-07-25T06:11:11;9.85;;;7.68;;
64885;SDS011;51514;52.206;5.114;2022-07-25T06:13:37;10.35;;;7.43;;
64885;SDS011;51514;52.206;5.114;2022-07-25T06:16:02;9.13;;;6.57;;
64885;SDS011;51514;52.206;5.114;2022-07-25T06:18:27;8.02;;;6.72;;
64885;SDS011;51514;52.206;5.114;2022-07-25T06:20:53;7.22;;;6.20;;
64885;SDS011;51514;52.206;5.114;2022-07-25T06:23:19;10.15;;;6.70;;
64885;SDS011;51514;52.206;5.114;2022-07-25T06:25:45;9.23;;;6.40;;
64885;SDS011;51514;52.206;5.114;2022-07-25T06:28:13;10.15;;;6.18;;
64885;SDS011;51514;52.206;5.114;2022-07-25T06:30:40;9.68;;;5.72;;
64885;SDS011;51514;52.206;5.114;2022-07-25T06:33:06;7.13;;;5.68;;
64885;SDS011;51514;52.206;5.114;2022-07-25T06:35:31;6.30;;;4.30;;
64885;SDS011;51514;52.206;5.114;2022-07-25T06:37:56;6.55;;;4.80;;
64885;SDS011;51514;52.206;5.114;2022-07-25T06:40:22;5.10;;;4.35;;
64885;SDS011;51514;52.206;5.114;2022-07-25T06:42:47;5.40;;;4.18;;
64885;SDS011;51514;52.206;5.114;2022-07-25T06:45:13;4.55;;;3.50;;
64885;SDS011;51514;52.206;5.114;2022-07-25T06:47:39;6.95;;;3.55;;
64885;SDS011;51514;52.206;5.114;2022-07-25T06:50:06;5.18;;;3.00;;
64885;SDS011;51514;52.206;5.114;2022-07-25T06:52:33;5.40;;;3.05;;
64885;SDS011;51514;52.206;5.114;2022-07-25T06:54:59;6.90;;;3.25;;
64885;SDS011;51514;52.206;5.114;2022-07-25T06:57:25;6.28;;;3.00;;
64885;SDS011;51514;52.206;5.114;2022-07-25T06:59:50;6.78;;;3.22;;
64885;SDS011;51514;52.206;5.114;2022-07-25T07:02:15;5.18;;;3.08;;
64885;SDS011;51514;52.206;5.114;2022-07-25T07:04:41;6.45;;;3.38;;
64885;SDS011;51514;52.206;5.114;2022-07-25T07:07:06;4.30;;;2.72;;
64885;SDS011;51514;52.206;5.114;2022-07-25T07:09:31;7.85;;;3.30;;
64885;SDS011;51514;52.206;5.114;2022-07-25T07:11:57;5.35;;;2.60;;
64885;SDS011;51514;52.206;5.114;2022-07-25T07:14:22;4.30;;;2.35;;
64885;SDS011;51514;52.206;5.114;2022-07-25T07:16:47;5.03;;;2.90;;
64885;SDS011;51514;52.206;5.114;2022-07-25T07:19:12;6.28;;;2.92;;
64885;SDS011;51514;52.206;5.114;2022-07-25T07:21:38;5.30;;;3.53;;
64885;SDS011;51514;52.206;5.114;2022-07-25T07:24:04;5.95;;;2.40;;
64885;SDS011;51514;52.206;5.114;2022-07-25T07:26:30;4.88;;;2.25;;
64885;SDS011;51514;52.206;5.114;2022-07-25T07:28:55;4.80;;;2.30;;
64885;SDS011;51514;52.206;5.114;2022-07-25T07:31:21;4.60;;;2.38;;
64885;SDS011;51514;52.206;5.114;2022-07-25T07:33:46;5.10;;;2.10;;
64885;SDS011;51514;52.206;5.114;2022-07-25T07:36:11;4.43;;;2.13;;
64885;SDS011;51514;52.206;5.114;2022-07-25T07:38:37;5.43;;;2.53;;
64885;SDS011;51514;52.206;5.114;2022-07-25T07:41:02;4.00;;;2.40;;
64885;SDS011;51514;52.206;5.114;2022-07-25T07:43:28;6.18;;;2.60;;
64885;SDS011;51514;52.206;5.114;2022-07-25T07:45:56;5.50;;;1.73;;
64885;SDS011;51514;52.206;5.114;2022-07-25T07:48:24;4.07;;;1.92;;
64885;SDS011;51514;52.206;5.114;2022-07-25T07:50:50;5.00;;;1.98;;
64885;SDS011;51514;52.206;5.114;2022-07-25T07:53:15;4.65;;;1.90;;
64885;SDS011;51514;52.206;5.114;2022-07-25T07:55:41;5.07;;;1.55;;
64885;SDS011;51514;52.206;5.114;2022-07-25T07:58:13;8.43;;;2.13;;
64885;SDS011;51514;52.206;5.114;2022-07-25T08:00:41;3.40;;;1.75;;
64885;SDS011;51514;52.206;5.114;2022-07-25T08:03:08;6.95;;;2.28;;
64885;SDS011;51514;52.206;5.114;2022-07-25T08:05:35;4.95;;;2.28;;
64885;SDS011;51514;52.206;5.114;2022-07-25T08:08:01;5.22;;;2.10;;
64885;SDS011;51514;52.206;5.114;2022-07-25T08:10:28;10.60;;;1.77;;
64885;SDS011;51514;52.206;5.114;2022-07-25T08:12:55;4.33;;;2.30;;
64885;SDS011;51514;52.206;5.114;2022-07-25T08:15:22;6.35;;;2.28;;
64885;SDS011;51514;52.206;5.114;2022-07-25T08:17:48;5.10;;;2.10;;
64885;SDS011;51514;52.206;5.114;2022-07-25T08:20:15;6.65;;;2.58;;
64885;SDS011;51514;52.206;5.114;2022-07-25T08:22:44;11.43;;;2.63;;
64885;SDS011;51514;52.206;5.114;2022-07-25T08:25:13;7.72;;;2.42;;
64885;SDS011;51514;52.206;5.114;2022-07-25T08:27:43;10.90;;;2.80;;
64885;SDS011;51514;52.206;5.114;2022-07-25T08:30:10;7.75;;;2.53;;
64885;SDS011;51514;52.206;5.114;2022-07-25T08:32:51;8.85;;;2.70;;
64885;SDS011;51514;52.206;5.114;2022-07-25T08:35:18;9.00;;;2.45;;
64885;SDS011;51514;52.206;5.114;2022-07-25T08:37:45;6.72;;;2.47;;
64885;SDS011;51514;52.206;5.114;2022-07-25T08:40:11;8.55;;;2.40;;
64885;SDS011;51514;52.206;5.114;2022-07-25T08:42:38;6.38;;;2.65;;
64885;SDS011;51514;52.206;5.114;2022-07-25T08:45:05;7.75;;;2.42;;
64885;SDS011;51514;52.206;5.114;2022-07-25T08:47:32;7.60;;;2.95;;
64885;SDS011;51514;52.206;5.114;2022-07-25T08:49:58;6.00;;;2.83;;
64885;SDS011;51514;52.206;5.114;2022-07-25T08:52:26;8.20;;;2.80;;
64885;SDS011;51514;52.206;5.114;2022-07-25T08:54:51;6.43;;;2.90;;
64885;SDS011;51514;52.206;5.114;2022-07-25T08:57:17;7.93;;;2.78;;
64885;SDS011;51514;52.206;5.114;2022-07-25T08:59:42;7.57;;;2.42;;
64885;SDS011;51514;52.206;5.114;2022-07-25T09:02:14;7.22;;;2.35;;
64885;SDS011;51514;52.206;5.114;2022-07-25T09:04:40;5.88;;;2.63;;
64885;SDS011;51514;52.206;5.114;2022-07-25T09:07:07;7.93;;;2.60;;
64885;SDS011;51514;52.206;5.114;2022-07-25T09:09:34;6.90;;;2.40;;
64885;SDS011;51514;52.206;5.114;2022-07-25T09:12:01;9.02;;;2.80;;
64885;SDS011;51514;52.206;5.114;2022-07-25T09:14:27;8.60;;;3.38;;
64885;SDS011;51514;52.206;5.114;2022-07-25T09:16:54;11.68;;;2.65;;
64885;SDS011;51514;52.206;5.114;2022-07-25T09:19:20;9.20;;;3.45;;
64885;SDS011;51514;52.206;5.114;2022-07-25T09:22:00;8.95;;;3.00;;
64885;SDS011;51514;52.206;5.114;2022-07-25T09:24:27;11.50;;;3.22;;
64885;SDS011;51514;52.206;5.114;2022-07-25T09:26:54;7.78;;;2.97;;
64885;SDS011;51514;52.206;5.114;2022-07-25T09:29:23;7.10;;;2.92;;
64885;SDS011;51514;52.206;5.114;2022-07-25T09:31:51;6.43;;;2.87;;
64885;SDS011;51514;52.206;5.114;2022-07-25T09:37:07;9.88;;;3.25;;
64885;SDS011;51514;52.206;5.114;2022-07-25T09:45:03;8.75;;;2.80;;
64885;SDS011;51514;52.206;5.114;2022-07-25T09:47:59;6.22;;;2.85;;
64885;SDS011;51514;52.206;5.114;2022-07-25T09:50:24;9.30;;;3.55;;
64885;SDS011;51514;52.206;5.114;2022-07-25T09:52:52;7.47;;;2.95;;
64885;SDS011;51514;52.206;5.114;2022-07-25T09:55:19;13.65;;;3.70;;
64885;SDS011;51514;52.206;5.114;2022-07-25T09:57:45;7.75;;;2.90;;
64885;SDS011;51514;52.206;5.114;2022-07-25T10:00:17;8.45;;;2.88;;
64885;SDS011;51514;52.206;5.114;2022-07-25T10:08:12;10.43;;;2.70;;
64885;SDS011;51514;52.206;5.114;2022-07-25T10:10:39;6.80;;;2.97;;
64885;SDS011;51514;52.206;5.114;2022-07-25T10:13:06;8.00;;;2.78;;
64885;SDS011;51514;52.206;5.114;2022-07-25T10:15:49;5.43;;;2.33;;
64885;SDS011;51514;52.206;5.114;2022-07-25T10:18:20;10.82;;;2.95;;
64885;SDS011;51514;52.206;5.114;2022-07-25T10:20:48;6.38;;;2.75;;
64885;SDS011;51514;52.206;5.114;2022-07-25T10:26:05;6.53;;;2.67;;
64885;SDS011;51514;52.206;5.114;2022-07-25T10:28:41;11.32;;;2.95;;
64885;SDS011;51514;52.206;5.114;2022-07-25T10:31:21;7.72;;;2.60;;
64885;SDS011;51514;52.206;5.114;2022-07-25T10:33:56;6.88;;;2.88;;
64885;SDS011;51514;52.206;5.114;2022-07-25T10:36:24;5.10;;;2.20;;
64885;SDS011;51514;52.206;5.114;2022-07-25T10:39:06;11.98;;;2.95;;
64885;SDS011;51514;52.206;5.114;2022-07-25T10:41:35;6.95;;;2.30;;
64885;SDS011;51514;52.206;5.114;2022-07-25T10:44:02;6.20;;;2.38;;
64885;SDS011;51514;52.206;5.114;2022-07-25T10:46:28;16.35;;;3.35;;
64885;SDS011;51514;52.206;5.114;2022-07-25T10:48:58;8.80;;;2.85;;
64885;SDS011;51514;52.206;5.114;2022-07-25T10:51:33;6.82;;;2.85;;
64885;SDS011;51514;52.206;5.114;2022-07-25T10:54:13;7.35;;;2.72;;
64885;SDS011;51514;52.206;5.114;2022-07-25T10:56:49;5.72;;;2.63;;
64885;SDS011;51514;52.206;5.114;2022-07-25T10:59:24;8.23;;;3.00;;
64885;SDS011;51514;52.206;5.114;2022-07-25T11:01:59;7.78;;;2.97;;
64885;SDS011;51514;52.206;5.114;2022-07-25T11:04:26;8.07;;;3.13;;
64885;SDS011;51514;52.206;5.114;2022-07-25T11:06:52;8.02;;;3.00;;
64885;SDS011;51514;52.206;5.114;2022-07-25T11:09:18;6.63;;;2.70;;
64885;SDS011;51514;52.206;5.114;2022-07-25T11:11:52;7.10;;;2.78;;
64885;SDS011;51514;52.206;5.114;2022-07-25T11:14:23;7.47;;;3.30;;
64885;SDS011;51514;52.206;5.114;2022-07-25T11:16:51;11.65;;;3.47;;
64885;SDS011;51514;52.206;5.114;2022-07-25T11:21:51;13.65;;;4.18;;
64885;SDS011;51514;52.206;5.114;2022-07-25T11:24:19;12.23;;;3.95;;
64885;SDS011;51514;52.206;5.114;2022-07-25T11:26:52;12.15;;;5.13;;
64885;SDS011;51514;52.206;5.114;2022-07-25T11:29:18;8.15;;;3.22;;
64885;SDS011;51514;52.206;5.114;2022-07-25T11:31:54;12.25;;;3.67;;
64885;SDS011;51514;52.206;5.114;2022-07-25T11:34:23;9.82;;;3.35;;
64885;SDS011;51514;52.206;5.114;2022-07-25T11:36:51;13.02;;;3.53;;
64885;SDS011;51514;52.206;5.114;2022-07-25T11:39:19;11.07;;;3.90;;
64885;SDS011;51514;52.206;5.114;2022-07-25T11:41:45;10.48;;;3.50;;
64885;SDS011;51514;52.206;5.114;2022-07-25T11:44:10;10.05;;;3.50;;
64885;SDS011;51514;52.206;5.114;2022-07-25T11:46:42;12.80;;;4.00;;
64885;SDS011;51514;52.206;5.114;2022-07-25T11:49:08;7.82;;;3.10;;
64885;SDS011;51514;52.206;5.114;2022-07-25T11:51:37;10.90;;;3.83;;
64885;SDS011;51514;52.206;5.114;2022-07-25T11:54:09;10.05;;;3.70;;
64885;SDS011;51514;52.206;5.114;2022-07-25T11:56:36;11.77;;;3.40;;
64885;SDS011;51514;52.206;5.114;2022-07-25T11:59:03;8.75;;;3.35;;
64885;SDS011;51514;52.206;5.114;2022-07-25T12:01:32;10.65;;;3.78;;
64885;SDS011;51514;52.206;5.114;2022-07-25T12:04:13;9.68;;;3.30;;
64885;SDS011;51514;52.206;5.114;2022-07-25T12:06:45;10.23;;;3.50;;
64885;SDS011;51514;52.206;5.114;2022-07-25T12:09:17;11.52;;;3.45;;
64885;SDS011;51514;52.206;5.114;2022-07-25T12:11:44;9.15;;;3.60;;
64885;SDS011;51514;52.206;5.114;2022-07-25T12:14:10;12.57;;;3.28;;
64885;SDS011;51514;52.206;5.114;2022-07-25T12:16:36;9.30;;;2.95;;
64885;SDS011;51514;52.206;5.114;2022-07-25T12:19:02;6.45;;;2.90;;
64885;SDS011;51514;52.206;5.114;2022-07-25T12:21:32;8.68;;;3.30;;
64885;SDS011;51514;52.206;5.114;2022-07-25T12:23:57;8.00;;;3.15;;
64885;SDS011;51514;52.206;5.114;2022-07-25T12:26:22;8.82;;;3.00;;
64885;SDS011;51514;52.206;5.114;2022-07-25T12:28:48;11.75;;;3.15;;
64885;SDS011;51514;52.206;5.114;2022-07-25T12:31:13;9.23;;;3.20;;
64885;SDS011;51514;52.206;5.114;2022-07-25T12:33:38;12.00;;;3.55;;
64885;SDS011;51514;52.206;5.114;2022-07-25T12:36:04;7.07;;;3.05;;
64885;SDS011;51514;52.206;5.114;2022-07-25T12:38:29;9.43;;;3.15;;
64885;SDS011;51514;52.206;5.114;2022-07-25T12:40:54;9.13;;;2.83;;
64885;SDS011;51514;52.206;5.114;2022-07-25T12:43:20;9.02;;;3.03;;
64885;SDS011;51514;52.206;5.114;2022-07-25T12:45:46;10.52;;;3.13;;
64885;SDS011;51514;52.206;5.114;2022-07-25T12:48:12;9.02;;;2.72;;
64885;SDS011;51514;52.206;5.114;2022-07-25T12:50:42;8.30;;;3.03;;
64885;SDS011;51514;52.206;5.114;2022-07-25T12:53:07;9.80;;;2.55;;
64885;SDS011;51514;52.206;5.114;2022-07-25T12:55:33;7.03;;;2.92;;
64885;SDS011;51514;52.206;5.114;2022-07-25T12:57:59;8.82;;;3.05;;
64885;SDS011;51514;52.206;5.114;2022-07-25T13:00:24;8.43;;;2.60;;
64885;SDS011;51514;52.206;5.114;2022-07-25T13:02:50;10.70;;;3.00;;
64885;SDS011;51514;52.206;5.114;2022-07-25T13:05:17;6.95;;;2.42;;
64885;SDS011;51514;52.206;5.114;2022-07-25T13:07:43;9.40;;;2.47;;
64885;SDS011;51514;52.206;5.114;2022-07-25T13:10:09;10.70;;;2.60;;
64885;SDS011;51514;52.206;5.114;2022-07-25T13:12:34;10.88;;;2.95;;
64885;SDS011;51514;52.206;5.114;2022-07-25T13:15:00;11.02;;;3.10;;
64885;SDS011;51514;52.206;5.114;2022-07-25T13:17:25;6.85;;;2.72;;
64885;SDS011;51514;52.206;5.114;2022-07-25T13:19:51;13.63;;;3.38;;
64885;SDS011;51514;52.206;5.114;2022-07-25T13:22:16;18.80;;;3.28;;
64885;SDS011;51514;52.206;5.114;2022-07-25T13:24:42;16.48;;;3.55;;
64885;SDS011;51514;52.206;5.114;2022-07-25T13:27:07;6.38;;;3.03;;
64885;SDS011;51514;52.206;5.114;2022-07-25T13:29:33;9.10;;;2.75;;
64885;SDS011;51514;52.206;5.114;2022-07-25T13:31:59;10.57;;;3.13;;
64885;SDS011;51514;52.206;5.114;2022-07-25T13:34:25;13.10;;;2.53;;
64885;SDS011;51514;52.206;5.114;2022-07-25T13:36:50;9.13;;;2.35;;
64885;SDS011;51514;52.206;5.114;2022-07-25T13:39:16;7.45;;;2.28;;
64885;SDS011;51514;52.206;5.114;2022-07-25T13:41:41;9.02;;;2.47;;
64885;SDS011;51514;52.206;5.114;2022-07-25T13:44:06;7.20;;;2.47;;
64885;SDS011;51514;52.206;5.114;2022-07-25T13:46:32;5.88;;;2.30;;
64885;SDS011;51514;52.206;5.114;2022-07-25T13:48:57;6.82;;;2.10;;
64885;SDS011;51514;52.206;5.114;2022-07-25T13:51:23;9.43;;;2.50;;
64885;SDS011;51514;52.206;5.114;2022-07-25T13:53:48;6.80;;;2.47;;
64885;SDS011;51514;52.206;5.114;2022-07-25T13:56:14;8.25;;;2.42;;
64885;SDS011;51514;52.206;5.114;2022-07-25T13:58:39;7.32;;;2.70;;
64885;SDS011;51514;52.206;5.114;2022-07-25T14:01:05;9.25;;;2.72;;
64885;SDS011;51514;52.206;5.114;2022-07-25T14:03:31;7.03;;;2.33;;
64885;SDS011;51514;52.206;5.114;2022-07-25T14:05:57;4.63;;;2.05;;
64885;SDS011;51514;52.206;5.114;2022-07-25T14:08:23;5.05;;;2.05;;
64885;SDS011;51514;52.206;5.114;2022-07-25T14:10:50;8.40;;;2.33;;
64885;SDS011;51514;52.206;5.114;2022-07-25T14:13:16;6.80;;;2.22;;
64885;SDS011;51514;52.206;5.114;2022-07-25T14:15:41;6.75;;;2.20;;
64885;SDS011;51514;52.206;5.114;2022-07-25T14:18:07;6.93;;;2.40;;
64885;SDS011;51514;52.206;5.114;2022-07-25T14:20:33;9.52;;;2.78;;
64885;SDS011;51514;52.206;5.114;2022-07-25T14:22:59;9.95;;;2.28;;
64885;SDS011;51514;52.206;5.114;2022-07-25T14:25:24;8.57;;;2.30;;
64885;SDS011;51514;52.206;5.114;2022-07-25T14:27:49;10.02;;;2.15;;
64885;SDS011;51514;52.206;5.114;2022-07-25T14:30:15;7.30;;;1.90;;
64885;SDS011;51514;52.206;5.114;2022-07-25T14:32:40;6.78;;;2.28;;
64885;SDS011;51514;52.206;5.114;2022-07-25T14:35:06;7.30;;;1.90;;
64885;SDS011;51514;52.206;5.114;2022-07-25T14:37:32;6.13;;;2.60;;
64885;SDS011;51514;52.206;5.114;2022-07-25T14:39:58;8.10;;;2.15;;
64885;SDS011;51514;52.206;5.114;2022-07-25T14:42:23;5.50;;;2.22;;
64885;SDS011;51514;52.206;5.114;2022-07-25T14:44:49;7.10;;;1.95;;
64885;SDS011;51514;52.206;5.114;2022-07-25T14:47:14;8.40;;;2.20;;
64885;SDS011;51514;52.206;5.114;2022-07-25T14:49:40;10.30;;;2.60;;
64885;SDS011;51514;52.206;5.114;2022-07-25T14:52:05;7.22;;;2.10;;
64885;SDS011;51514;52.206;5.114;2022-07-25T14:54:31;6.28;;;2.17;;
64885;SDS011;51514;52.206;5.114;2022-07-25T14:56:56;5.88;;;1.70;;